createdAt,value
2022-11-22T00:02:55.453Z,19.50
2022-11-22T00:07:57.221Z,18.10
2022-11-22T00:12:59.282Z,18.17
2022-11-22T00:18:01.071Z,18.90
2022-11-22T00:23:03.497Z,19.07
2022-11-22T00:28:05.319Z,18.10
2022-11-22T00:33:07.101Z,19.70
2022-11-22T00:38:08.885Z,18.70
2022-11-22T00:43:10.703Z,17.13
2022-11-22T00:48:12.531Z,16.03
2022-11-22T00:53:14.272Z,16.60
2022-11-22T00:58:16.244Z,16.77
2022-11-22T01:03:18.172Z,16.23
2022-11-22T01:08:19.997Z,15.03
2022-11-22T01:13:21.775Z,14.57
2022-11-22T01:18:23.575Z,13.97
2022-11-22T01:23:25.398Z,13.80
2022-11-22T01:28:27.327Z,12.60
2022-11-22T01:33:29.386Z,12.90
2022-11-22T01:38:31.193Z,13.13
2022-11-22T01:43:32.982Z,10.83
2022-11-22T01:48:48.157Z,11.50
2022-11-22T01:53:50.891Z,11.10
2022-11-22T01:58:58.611Z,11.70
2022-11-22T02:04:02.676Z,10.77
2022-11-22T02:09:11.191Z,10.70
2022-11-22T02:14:16.477Z,10.97
2022-11-22T02:19:39.828Z,10.13
2022-11-22T02:24:46.912Z,10.37
2022-11-22T02:29:48.732Z,9.80
2022-11-22T02:34:51.994Z,9.03
2022-11-22T02:39:59.106Z,9.73
2022-11-22T02:45:00.892Z,10.13
2022-11-22T02:50:02.709Z,9.37
2022-11-22T02:55:04.861Z,8.97
2022-11-22T03:00:07.382Z,7.77
2022-11-22T03:05:09.845Z,8.40
2022-11-22T03:10:11.699Z,8.37
2022-11-22T03:15:13.499Z,8.93
2022-11-22T03:20:15.598Z,8.47
2022-11-22T03:25:17.372Z,7.63
2022-11-22T03:30:19.277Z,7.50
2022-11-22T03:35:21.061Z,6.90
2022-11-22T03:40:22.824Z,6.53
2022-11-22T03:45:24.578Z,6.60
2022-11-22T03:50:26.362Z,6.10
2022-11-22T03:55:28.236Z,6.00
2022-11-22T04:00:30.299Z,6.83
2022-11-22T04:05:32.068Z,5.97
2022-11-22T04:10:34.082Z,6.43
2022-11-22T04:15:36.970Z,6.30
2022-11-22T04:20:58.354Z,5.60
2022-11-22T04:26:00.140Z,6.50
2022-11-22T04:31:20.476Z,6.60
2022-11-22T04:36:22.224Z,6.40
2022-11-22T04:41:24.007Z,6.80
2022-11-22T04:46:25.778Z,6.80
2022-11-22T04:51:46.024Z,6.80
2022-11-22T04:56:48.079Z,7.90
2022-11-22T05:01:49.855Z,9.00
2022-11-22T05:06:51.691Z,7.33
2022-11-22T05:11:53.849Z,7.53
2022-11-22T05:16:55.676Z,6.60
2022-11-22T05:21:57.472Z,9.93
2022-11-22T05:26:59.280Z,9.33
2022-11-22T05:32:01.058Z,8.27
2022-11-22T05:37:02.847Z,6.83
2022-11-22T05:42:05.972Z,7.57
2022-11-22T05:47:07.911Z,7.83
2022-11-22T05:52:09.714Z,11.13
2022-11-22T05:57:11.596Z,12.77
2022-11-22T06:02:13.477Z,11.47
2022-11-22T06:07:15.410Z,13.77
2022-11-22T06:12:17.233Z,12.50
2022-11-22T06:17:19.178Z,13.70
2022-11-22T06:22:20.979Z,13.63
2022-11-22T06:27:22.900Z,18.17
2022-11-22T06:32:24.668Z,14.87
2022-11-22T06:37:26.482Z,14.90
2022-11-22T06:42:28.293Z,15.30
2022-11-22T06:47:30.126Z,14.73
2022-11-22T06:52:31.942Z,13.60
2022-11-22T06:57:33.708Z,12.93
2022-11-22T07:02:35.458Z,13.90
2022-11-22T07:07:37.365Z,12.80
2022-11-22T07:12:39.220Z,13.30
2022-11-22T07:17:41.105Z,12.37
2022-11-22T07:22:42.957Z,13.37
2022-11-22T07:27:44.840Z,12.13
2022-11-22T07:32:49.777Z,12.53
2022-11-22T07:37:51.580Z,12.87
2022-11-22T07:42:58.321Z,14.03
2022-11-22T07:48:00.943Z,13.70
2022-11-22T07:53:02.797Z,13.48
2022-11-22T07:58:04.856Z,14.97
2022-11-22T08:03:09.727Z,12.70
2022-11-22T08:08:11.712Z,13.02
2022-11-22T08:13:13.475Z,13.80
2022-11-22T08:18:16.010Z,12.85
2022-11-22T08:23:17.900Z,13.93
2022-11-22T08:28:19.681Z,12.27
2022-11-22T08:33:21.500Z,13.15
2022-11-22T08:38:23.586Z,13.57
2022-11-22T08:43:25.761Z,13.18
2022-11-22T08:48:28.614Z,13.25
2022-11-22T08:53:32.477Z,12.68
2022-11-22T08:58:34.444Z,13.40
2022-11-22T09:03:36.741Z,14.13
2022-11-22T09:08:40.597Z,13.05
2022-11-22T09:13:46.409Z,12.40
2022-11-22T09:18:48.693Z,11.77
2022-11-22T09:23:51.867Z,11.93
2022-11-22T09:28:53.660Z,12.15
2022-11-22T09:33:55.507Z,12.05
2022-11-22T09:38:57.371Z,11.52
2022-11-22T09:44:14.371Z,11.70
2022-11-22T09:49:38.530Z,12.25
2022-11-22T09:55:04.975Z,11.68
2022-11-22T10:00:18.829Z,11.68
2022-11-22T10:05:25.994Z,13.23
2022-11-22T10:10:42.866Z,12.20
2022-11-22T10:16:08.666Z,11.23
2022-11-22T10:21:14.824Z,13.15
2022-11-22T10:26:27.156Z,12.43
2022-11-22T10:31:53.926Z,12.27
2022-11-22T10:37:04.898Z,12.63
2022-11-22T10:42:42.424Z,12.65
2022-11-22T10:48:03.039Z,12.68
2022-11-22T10:53:07.747Z,12.40
2022-11-22T10:58:37.648Z,13.02
2022-11-22T11:03:44.414Z,12.80
2022-11-22T11:09:36.639Z,13.50
2022-11-22T11:14:46.817Z,13.70
2022-11-22T11:19:51.431Z,15.55
2022-11-22T11:24:53.235Z,14.57
2022-11-22T11:30:03.600Z,15.93
2022-11-22T11:35:08.385Z,14.73
2022-11-22T11:40:31.847Z,11.40
2022-11-22T11:45:33.627Z,13.65
2022-11-22T11:50:36.070Z,11.77
2022-11-22T11:55:38.001Z,11.77
2022-11-22T12:00:40.403Z,11.70
2022-11-22T12:05:42.509Z,11.00
2022-11-22T12:10:49.655Z,9.95
2022-11-22T12:16:01.432Z,10.93
2022-11-22T12:21:40.243Z,11.40
2022-11-22T12:26:41.934Z,11.30
2022-11-22T12:31:58.956Z,11.27
2022-11-22T12:37:06.571Z,11.10
2022-11-22T12:42:23.407Z,10.18
2022-11-22T12:47:31.378Z,11.38
2022-11-22T12:52:42.501Z,10.35
2022-11-22T12:57:47.138Z,10.75
2022-11-22T13:03:00.259Z,10.23
2022-11-22T13:08:15.761Z,10.25
2022-11-22T13:13:27.617Z,9.50
2022-11-22T13:18:38.506Z,10.13
2022-11-22T13:24:07.562Z,9.50
2022-11-22T13:29:22.095Z,9.48
2022-11-22T13:34:26.512Z,9.43
2022-11-22T13:39:28.302Z,9.98
2022-11-22T13:44:33.345Z,9.48
2022-11-22T13:49:48.984Z,8.55
2022-11-22T13:54:52.734Z,8.30
2022-11-22T14:00:12.649Z,8.32
2022-11-22T14:05:26.251Z,8.65
2022-11-22T14:10:49.696Z,8.00
2022-11-22T14:16:03.044Z,7.80
2022-11-22T14:21:10.179Z,8.73
2022-11-22T14:26:38.716Z,7.85
2022-11-22T14:31:40.790Z,8.07
2022-11-22T14:36:43.494Z,8.15
2022-11-22T14:41:45.548Z,8.10
2022-11-22T14:46:54.156Z,8.52
2022-11-22T14:51:57.368Z,9.45
2022-11-22T14:57:04.508Z,8.77
2022-11-22T15:02:37.107Z,11.55
2022-11-22T15:09:14.155Z,9.73
2022-11-22T15:13:42.279Z,9.50
2022-11-22T15:57:54.301Z,10.80
2022-11-22T16:03:06.761Z,10.02
2022-11-22T16:08:13.612Z,10.75
2022-11-22T16:13:21.282Z,11.40
2022-11-22T16:18:27.674Z,11.68
2022-11-22T16:23:34.988Z,12.18
2022-11-22T16:28:37.933Z,13.05
2022-11-22T16:33:39.524Z,13.20
2022-11-22T16:38:41.615Z,13.77
2022-11-22T16:43:43.295Z,14.65
2022-11-22T16:48:44.945Z,14.02
2022-11-22T16:53:48.249Z,12.82
2022-11-22T16:58:51.081Z,13.50
2022-11-22T17:03:59.253Z,14.23
2022-11-22T17:09:01.168Z,13.68
2022-11-22T17:14:02.738Z,13.50
2022-11-22T17:19:04.312Z,17.30
2022-11-22T17:24:19.955Z,21.75
2022-11-22T17:34:43.103Z,23.90
2022-11-22T17:39:44.718Z,20.48
2022-11-22T17:44:46.336Z,19.50
2022-11-22T17:49:48.593Z,20.17
2022-11-22T17:54:50.165Z,22.10
2022-11-22T17:59:51.772Z,17.90
2022-11-22T18:04:54.717Z,18.77
2022-11-22T18:09:56.292Z,21.60
2022-11-22T18:14:57.909Z,24.25
2022-11-22T18:20:00.871Z,22.23
2022-11-22T18:25:05.110Z,21.50
2022-11-22T18:30:07.299Z,21.45
2022-11-22T18:35:09.105Z,21.33
2022-11-22T18:40:11.296Z,22.02
2022-11-22T18:45:12.939Z,21.90
2022-11-22T18:55:21.420Z,19.15
2022-11-22T19:00:23.155Z,19.75
2022-11-22T19:05:24.818Z,19.08
2022-11-22T19:10:26.440Z,19.85
2022-11-22T19:15:28.056Z,19.60
2022-11-22T19:20:54.076Z,19.00
2022-11-22T19:25:51.257Z,19.75
2022-11-22T19:30:52.909Z,19.13
2022-11-22T19:35:59.071Z,18.92
2022-11-22T19:41:00.958Z,19.73
2022-11-22T19:46:03.683Z,19.33
2022-11-22T19:51:07.173Z,18.10
2022-11-22T19:56:19.604Z,20.38
2022-11-22T20:01:22.928Z,20.92
2022-11-22T20:06:25.304Z,20.05
2022-11-22T20:11:26.892Z,22.08
2022-11-22T20:16:30.186Z,21.98
2022-11-22T20:21:33.383Z,21.23
2022-11-22T20:26:35.673Z,19.08
2022-11-22T20:31:38.515Z,19.80
2022-11-22T20:36:40.089Z,18.90
2022-11-22T20:41:41.674Z,21.63
2022-11-22T20:46:43.295Z,18.60
2022-11-22T20:51:44.920Z,17.57
2022-11-22T20:56:47.334Z,17.10
2022-11-22T21:01:49.061Z,18.48
2022-11-22T21:06:50.719Z,17.85
2022-11-22T21:11:52.378Z,16.37
2022-11-22T21:16:53.984Z,15.80
2022-11-22T21:21:55.561Z,16.13
2022-11-22T21:26:57.184Z,15.38
2022-11-22T21:31:58.848Z,15.50
2022-11-22T21:37:00.435Z,15.65
2022-11-22T21:42:02.175Z,14.80
2022-11-22T21:47:03.817Z,14.27
2022-11-22T21:52:05.424Z,13.57
2022-11-22T21:57:07.664Z,13.30
2022-11-22T22:02:10.369Z,11.63
2022-11-22T22:07:23.912Z,13.27
2022-11-22T22:12:33.538Z,12.83
2022-11-22T22:17:35.180Z,12.50
2022-11-22T22:22:37.642Z,13.57
2022-11-22T22:27:39.270Z,12.30
2022-11-22T22:32:40.901Z,11.37
2022-11-22T22:37:42.465Z,11.83
2022-11-22T22:42:44.072Z,11.90
2022-11-22T22:47:45.676Z,11.83
2022-11-22T22:52:47.244Z,11.30
2022-11-22T22:57:48.816Z,10.33
2022-11-22T23:02:50.439Z,12.17
2022-11-22T23:07:52.558Z,11.83
2022-11-22T23:12:54.222Z,12.07
2022-11-22T23:17:55.848Z,12.37
2022-11-22T23:22:57.489Z,12.17
2022-11-22T23:27:59.274Z,12.53
2022-11-22T23:33:00.914Z,11.57
2022-11-22T23:38:02.634Z,11.90
2022-11-22T23:43:04.280Z,12.07
2022-11-22T23:48:06.134Z,11.63
2022-11-22T23:53:08.021Z,11.70
2022-11-22T23:58:10.037Z,10.93
